createdAt,value
2024-04-19T08:19:38.280Z,1374.00
2024-04-19T08:20:38.359Z,1370.00
2024-04-19T08:21:38.299Z,1367.00
2024-04-19T08:22:38.259Z,1370.00
2024-04-19T08:23:38.267Z,1366.00
2024-04-19T08:24:38.288Z,1353.00
2024-04-19T08:25:38.264Z,1344.00
2024-04-19T08:26:38.275Z,1344.00
2024-04-19T08:27:38.309Z,1350.00
2024-04-19T08:28:38.282Z,1349.00
2024-04-19T08:29:38.291Z,1350.00
2024-04-19T08:30:38.326Z,1350.00
2024-04-19T08:31:38.274Z,1349.00
2024-04-19T08:32:38.326Z,1348.00
2024-04-19T08:33:38.349Z,1344.00
2024-04-19T08:34:38.411Z,1335.00
2024-04-19T08:35:38.504Z,1341.00
2024-04-19T08:36:38.513Z,1339.00
2024-04-19T08:37:38.594Z,1341.00
2024-04-19T08:38:38.626Z,1338.00
2024-04-19T08:39:38.751Z,1348.00
2024-04-19T08:40:41.471Z,1353.00
2024-04-19T08:41:38.738Z,1349.00
2024-04-19T08:42:38.764Z,1351.00
2024-04-19T08:43:38.733Z,1354.00
2024-04-19T08:44:39.433Z,1335.00
2024-04-19T08:45:38.769Z,1346.00
2024-04-19T08:46:38.809Z,1334.00
2024-04-19T08:47:38.838Z,1347.00
2024-04-19T08:48:38.932Z,1358.00
2024-04-19T08:49:38.836Z,1355.00
2024-04-19T08:50:38.815Z,1456.00
2024-04-19T08:51:54.071Z,1400.00
2024-04-19T08:52:59.001Z,1381.00
2024-04-19T08:53:39.859Z,1369.00
2024-04-19T08:54:41.877Z,1365.00
2024-04-19T08:55:38.839Z,1361.00
2024-04-19T08:56:38.817Z,1360.00
2024-04-19T08:57:38.837Z,1359.00
2024-04-19T08:58:38.837Z,1359.00
2024-04-19T08:59:38.835Z,1357.00
2024-04-19T09:00:38.913Z,1356.00
2024-04-19T09:01:38.904Z,1357.00
2024-04-19T09:02:38.837Z,1356.00
2024-04-19T09:03:38.951Z,1348.00
2024-04-19T09:04:38.949Z,1348.00
2024-04-19T09:05:38.896Z,1351.00
2024-04-19T09:06:38.891Z,1339.00
2024-04-19T09:07:38.911Z,1333.00
2024-04-19T09:08:38.892Z,1331.00
2024-04-19T09:09:39.044Z,1330.00
2024-04-19T09:10:38.879Z,1321.00
2024-04-19T09:11:38.907Z,1316.00
2024-04-19T09:12:38.919Z,1311.00
2024-04-19T09:13:38.884Z,1314.00
2024-04-19T09:14:38.935Z,1314.00
2024-04-19T09:15:39.043Z,1318.00
2024-04-19T09:16:39.078Z,1320.00
2024-04-19T09:17:39.150Z,1317.00
2024-04-19T09:18:39.204Z,1324.00
2024-04-19T09:19:39.230Z,1326.00
2024-04-19T09:20:39.323Z,1333.00
2024-04-19T09:21:39.418Z,1331.00
2024-04-19T09:22:39.510Z,1325.00
2024-04-19T09:23:39.591Z,1321.00
2024-04-19T09:24:39.710Z,1318.00
2024-04-19T09:25:39.798Z,1313.00
2024-04-19T09:26:39.878Z,1310.00
2024-04-19T09:27:40.058Z,1310.00
2024-04-19T09:28:40.063Z,1316.00
2024-04-19T09:29:40.139Z,1316.00
2024-04-19T09:30:40.257Z,1316.00
2024-04-19T09:31:40.319Z,1312.00
2024-04-19T09:32:40.523Z,1308.00
2024-04-19T09:33:40.567Z,1308.00
2024-04-19T09:34:40.624Z,1312.00
2024-04-19T09:35:40.702Z,1305.00
2024-04-19T09:36:40.852Z,1303.00
2024-04-19T09:37:40.919Z,1301.00
2024-04-19T09:38:41.025Z,1296.00
2024-04-19T09:39:41.089Z,1291.00
2024-04-19T09:40:41.168Z,1306.00
2024-04-19T09:41:41.293Z,1314.00
2024-04-19T09:42:41.437Z,1314.00
2024-04-19T09:43:41.472Z,1312.00
2024-04-19T09:44:41.618Z,1297.00
2024-04-19T09:45:41.696Z,1303.00
2024-04-19T09:46:41.777Z,1349.00
2024-04-19T09:47:41.873Z,1366.00
2024-04-19T09:48:42.058Z,1369.00
2024-04-19T09:49:42.170Z,1226.00
2024-04-19T09:50:42.218Z,1213.00
2024-04-19T09:51:42.343Z,1116.00
2024-04-19T09:52:42.448Z,1123.00
2024-04-19T09:53:43.475Z,1095.00
2024-04-19T09:54:42.644Z,1057.00
2024-04-19T09:55:42.774Z,991.00
2024-04-19T09:56:42.747Z,1011.00
2024-04-19T09:57:42.897Z,942.00
2024-04-19T09:58:42.897Z,913.00
2024-04-19T09:59:42.994Z,899.00
2024-04-19T10:00:43.108Z,835.00
2024-04-19T10:01:43.215Z,824.00
2024-04-19T10:02:43.234Z,830.00
2024-04-19T10:03:43.400Z,853.00
2024-04-19T10:04:43.454Z,869.00
2024-04-19T10:05:43.528Z,881.00
2024-04-19T10:06:44.036Z,880.00
2024-04-19T10:08:26.296Z,812.00
2024-04-19T10:09:26.365Z,827.00
2024-04-19T10:10:26.298Z,836.00
2024-04-19T10:11:26.329Z,848.00
2024-04-19T10:12:26.313Z,876.00
2024-04-19T10:13:26.287Z,880.00
2024-04-19T10:14:26.297Z,876.00
2024-04-19T10:15:26.331Z,859.00
2024-04-19T10:16:26.317Z,845.00
2024-04-19T10:17:26.314Z,832.00
2024-04-19T10:18:26.390Z,819.00
2024-04-19T10:19:26.907Z,824.00
2024-04-19T10:20:26.348Z,870.00
2024-04-19T10:21:26.450Z,892.00
2024-04-19T10:22:26.329Z,911.00
2024-04-19T10:23:26.340Z,929.00
2024-04-19T10:24:26.406Z,927.00
2024-04-19T10:25:26.382Z,896.00
2024-04-19T10:26:26.355Z,902.00
2024-04-19T10:27:26.371Z,895.00
2024-04-19T10:28:26.386Z,894.00
2024-04-19T10:29:26.351Z,883.00
2024-04-19T10:30:34.514Z,884.00
2024-04-19T10:31:27.383Z,881.00
2024-04-19T10:32:26.363Z,873.00
2024-04-19T10:33:26.382Z,874.00
2024-04-19T10:34:26.378Z,870.00
2024-04-19T10:35:26.355Z,874.00
2024-04-19T10:36:26.383Z,895.00
2024-04-19T10:37:26.357Z,951.00
2024-04-19T10:38:26.382Z,956.00
2024-04-19T10:39:26.470Z,968.00
2024-04-19T10:40:26.376Z,962.00
2024-04-19T10:41:26.375Z,959.00
2024-04-19T10:42:26.393Z,961.00
2024-04-19T10:43:26.437Z,959.00
2024-04-19T10:44:26.500Z,946.00
2024-04-19T10:45:26.649Z,943.00
2024-04-19T10:46:26.671Z,933.00
2024-04-19T10:47:26.804Z,937.00
2024-04-19T10:48:29.008Z,943.00
2024-04-19T10:49:26.898Z,948.00
2024-04-19T10:50:26.965Z,953.00
2024-04-19T10:51:27.049Z,960.00
2024-04-19T10:52:27.106Z,961.00
2024-04-19T10:53:27.199Z,961.00
2024-04-19T10:54:27.302Z,955.00
2024-04-19T10:55:27.357Z,953.00
2024-04-19T10:56:27.432Z,951.00
2024-04-19T10:57:27.547Z,943.00
2024-04-19T10:58:27.563Z,952.00
2024-04-19T10:59:27.656Z,958.00
2024-04-19T11:00:27.891Z,957.00
2024-04-19T11:01:27.833Z,948.00
2024-04-19T11:02:28.079Z,944.00
2024-04-19T11:03:27.968Z,942.00
2024-04-19T11:04:28.094Z,931.00
2024-04-19T11:05:28.082Z,937.00
2024-04-19T11:06:28.185Z,938.00
2024-04-19T11:07:28.258Z,946.00
2024-04-19T11:08:28.278Z,949.00
2024-04-19T11:09:28.411Z,955.00
2024-04-19T11:10:28.417Z,954.00
2024-04-19T11:11:28.536Z,956.00
2024-04-19T11:12:28.623Z,945.00
2024-04-19T11:13:28.640Z,949.00
2024-04-19T11:14:28.705Z,950.00
2024-04-19T11:15:29.063Z,951.00
2024-04-19T11:16:28.842Z,955.00
2024-04-19T11:17:29.044Z,964.00
2024-04-19T11:18:29.147Z,972.00
2024-04-19T11:19:29.068Z,962.00
2024-04-19T11:20:29.141Z,966.00
2024-04-19T11:21:29.210Z,958.00
2024-04-19T11:22:29.304Z,957.00
2024-04-19T11:23:29.340Z,957.00
2024-04-19T11:24:29.433Z,954.00
2024-04-19T11:25:29.495Z,938.00
2024-04-19T11:26:29.603Z,939.00
2024-04-19T11:27:29.640Z,942.00
2024-04-19T11:28:29.721Z,938.00
2024-04-19T11:29:29.813Z,932.00
2024-04-19T11:30:29.923Z,931.00
2024-04-19T11:31:30.026Z,927.00
2024-04-19T11:32:30.216Z,928.00
2024-04-19T11:33:30.123Z,926.00
2024-04-19T11:34:30.216Z,926.00
2024-04-19T11:35:30.263Z,924.00
2024-04-19T11:36:30.356Z,924.00
2024-04-19T11:37:30.377Z,923.00
2024-04-19T11:38:30.487Z,926.00
2024-04-19T11:39:30.505Z,936.00
2024-04-19T11:40:30.581Z,922.00
2024-04-19T11:41:30.680Z,912.00
2024-04-19T11:42:30.708Z,908.00
2024-04-19T11:43:30.765Z,906.00
2024-04-19T11:44:30.859Z,902.00
2024-04-19T11:45:30.938Z,901.00
2024-04-19T11:46:31.130Z,896.00
2024-04-19T11:47:31.144Z,892.00
2024-04-19T11:48:31.249Z,892.00
2024-04-19T11:49:31.184Z,891.00
2024-04-19T11:50:31.301Z,889.00
2024-04-19T11:51:31.402Z,890.00
2024-04-19T11:52:31.410Z,892.00
2024-04-19T11:53:31.465Z,890.00
2024-04-19T11:54:31.554Z,887.00
2024-04-19T11:55:31.583Z,877.00
2024-04-19T11:56:31.726Z,867.00
2024-04-19T11:57:31.783Z,862.00
2024-04-19T11:58:31.832Z,862.00
2024-04-19T11:59:31.922Z,861.00
2024-04-19T12:00:32.042Z,858.00
2024-04-19T12:01:32.124Z,853.00
2024-04-19T12:02:32.148Z,852.00
2024-04-19T12:03:32.414Z,850.00
2024-04-19T12:04:32.412Z,846.00
2024-04-19T12:05:32.346Z,841.00
2024-04-19T12:06:32.424Z,838.00
2024-04-19T12:07:32.511Z,829.00
2024-04-19T12:08:32.469Z,823.00
2024-04-19T12:09:32.512Z,818.00
2024-04-19T12:10:32.534Z,816.00
2024-04-19T12:11:32.586Z,815.00
2024-04-19T12:13:09.749Z,813.00
2024-04-19T12:16:39.758Z,777.00
2024-04-19T12:17:30.436Z,774.00
2024-04-19T12:18:29.350Z,774.00
2024-04-19T12:19:28.765Z,768.00
2024-04-19T12:20:41.324Z,762.00
2024-04-19T12:21:29.668Z,760.00
2024-04-19T12:22:30.135Z,754.00
2024-04-19T12:23:29.927Z,752.00
2024-04-19T12:24:29.968Z,747.00
2024-04-19T12:25:29.219Z,743.00
2024-04-19T12:26:29.180Z,739.00
2024-04-19T12:27:29.043Z,733.00
2024-04-19T12:28:28.865Z,724.00
2024-04-19T12:29:28.990Z,721.00
2024-04-19T12:30:28.933Z,717.00
2024-04-19T12:31:28.920Z,710.00
2024-04-19T12:32:29.000Z,703.00
2024-04-19T12:33:29.053Z,701.00
2024-04-19T12:34:29.043Z,698.00
2024-04-19T12:35:29.117Z,693.00
2024-04-19T12:36:29.158Z,688.00
2024-04-19T12:37:29.175Z,686.00
2024-04-19T12:38:30.881Z,680.00
2024-04-19T12:39:29.262Z,674.00
2024-04-19T12:40:29.243Z,670.00
2024-04-19T12:41:29.299Z,667.00
2024-04-19T12:42:29.337Z,660.00
2024-04-19T12:43:29.356Z,656.00
2024-04-19T12:44:29.372Z,653.00
2024-04-19T12:45:29.490Z,652.00
2024-04-19T12:46:29.442Z,649.00
2024-04-19T12:47:29.553Z,644.00
2024-04-19T12:48:29.734Z,645.00
2024-04-19T12:49:29.709Z,643.00
2024-04-19T12:50:29.764Z,642.00
2024-04-19T12:51:29.927Z,640.00
2024-04-19T12:52:29.933Z,640.00
2024-04-19T12:53:30.055Z,639.00
2024-04-19T12:54:30.105Z,637.00
2024-04-19T12:55:30.204Z,631.00
2024-04-19T12:56:30.330Z,624.00
2024-04-19T12:57:30.372Z,621.00
2024-04-19T12:58:30.422Z,621.00
2024-04-19T12:59:30.495Z,620.00
2024-04-19T13:00:30.989Z,618.00
2024-04-19T13:01:30.700Z,616.00
2024-04-19T13:02:30.700Z,617.00
2024-04-19T13:03:30.803Z,617.00
2024-04-19T13:04:30.792Z,611.00
2024-04-19T13:05:30.784Z,607.00
2024-04-19T13:06:30.886Z,606.00
2024-04-19T13:07:30.859Z,607.00
2024-04-19T13:08:30.949Z,606.00
2024-04-19T13:09:30.923Z,603.00
2024-04-19T13:10:30.959Z,608.00
2024-04-19T13:11:31.008Z,608.00
2024-04-19T13:12:31.035Z,606.00
2024-04-19T13:13:31.091Z,605.00
2024-04-19T13:14:31.086Z,605.00
2024-04-19T13:15:31.191Z,603.00
2024-04-19T13:16:31.299Z,602.00
2024-04-19T13:17:31.251Z,603.00
2024-04-19T13:18:31.347Z,602.00
2024-04-19T13:19:31.432Z,603.00
2024-04-19T13:20:31.535Z,605.00
2024-04-19T13:21:31.636Z,611.00
2024-04-19T13:22:31.686Z,611.00
2024-04-19T13:23:31.783Z,610.00
2024-04-19T13:24:31.900Z,607.00
2024-04-19T13:25:31.944Z,608.00
2024-04-19T13:26:32.052Z,608.00
2024-04-19T13:27:32.151Z,610.00
2024-04-19T13:28:32.218Z,614.00
2024-04-19T13:29:32.330Z,612.00
2024-04-19T13:30:32.449Z,611.00
2024-04-19T13:31:32.595Z,613.00
2024-04-19T13:32:32.670Z,613.00
2024-04-19T13:33:32.670Z,610.00
2024-04-19T13:34:32.760Z,606.00
2024-04-19T13:35:32.879Z,606.00
2024-04-19T13:36:32.969Z,603.00
2024-04-19T13:37:33.055Z,607.00
2024-04-19T13:38:33.141Z,605.00
2024-04-19T13:39:33.275Z,602.00
2024-04-19T13:40:33.324Z,600.00
2024-04-19T13:41:33.432Z,599.00
2024-04-19T13:42:33.547Z,596.00
2024-04-19T13:43:33.626Z,593.00
2024-04-19T13:44:34.808Z,595.00
2024-04-19T13:45:33.851Z,597.00
2024-04-19T13:46:33.882Z,596.00
2024-04-19T13:47:34.226Z,594.00
2024-04-19T13:48:34.296Z,595.00
2024-04-19T13:49:34.217Z,590.00
2024-04-19T13:50:34.276Z,589.00
2024-04-19T13:51:34.404Z,589.00
2024-04-19T13:52:34.481Z,589.00
2024-04-19T13:53:34.534Z,590.00
2024-04-19T13:54:34.670Z,589.00
2024-04-19T13:55:34.752Z,586.00
2024-04-19T13:56:34.834Z,588.00
2024-04-19T13:57:34.951Z,588.00
2024-04-19T13:58:35.022Z,586.00
2024-04-19T13:59:35.122Z,585.00
2024-04-19T14:00:35.275Z,584.00
2024-04-19T14:01:35.400Z,585.00
2024-04-19T14:02:35.450Z,583.00
2024-04-19T14:03:35.530Z,580.00
2024-04-19T14:04:35.569Z,578.00
2024-04-19T14:05:35.713Z,577.00
2024-04-19T14:06:35.798Z,576.00
2024-04-19T14:07:35.862Z,576.00
2024-04-19T14:08:35.963Z,575.00
2024-04-19T14:09:36.077Z,575.00
2024-04-19T14:10:36.160Z,575.00
2024-04-19T14:11:36.241Z,572.00
2024-04-19T14:12:38.437Z,570.00
2024-04-19T14:13:36.346Z,573.00
2024-04-19T14:14:36.331Z,572.00
2024-04-19T14:15:36.326Z,568.00
2024-04-19T14:16:36.370Z,566.00
2024-04-19T14:17:36.401Z,567.00
2024-04-19T14:18:36.390Z,567.00
2024-04-19T14:19:36.348Z,568.00
2024-04-19T14:20:36.357Z,570.00
2024-04-19T14:21:36.403Z,570.00
2024-04-19T14:22:36.324Z,569.00
2024-04-19T14:23:36.371Z,569.00
2024-04-19T14:24:36.390Z,568.00
2024-04-19T14:25:36.372Z,566.00
2024-04-19T14:26:36.371Z,565.00
2024-04-19T14:27:36.353Z,566.00
2024-04-19T14:28:36.345Z,568.00
2024-04-19T14:29:36.374Z,567.00
2024-04-19T14:30:36.365Z,565.00
2024-04-19T14:31:36.337Z,562.00
2024-04-19T14:32:36.559Z,561.00
2024-04-19T14:33:36.378Z,563.00
2024-04-19T14:34:36.362Z,563.00
2024-04-19T14:35:36.389Z,559.00
2024-04-19T14:36:36.446Z,557.00
2024-04-19T14:37:36.367Z,554.00
2024-04-19T14:38:36.368Z,553.00
2024-04-19T14:39:36.479Z,554.00
2024-04-19T14:40:36.388Z,551.00
2024-04-19T14:41:36.414Z,548.00
2024-04-19T14:42:36.382Z,547.00
2024-04-19T14:43:36.370Z,545.00
2024-04-19T14:44:36.381Z,546.00
2024-04-19T14:45:36.391Z,545.00
2024-04-19T14:46:36.390Z,546.00
2024-04-19T14:47:36.484Z,544.00
2024-04-19T14:48:36.634Z,543.00
2024-04-19T14:49:36.441Z,543.00
2024-04-19T14:50:36.408Z,542.00
2024-04-19T14:51:36.604Z,539.00
2024-04-19T14:52:36.594Z,541.00
2024-04-19T14:53:36.682Z,542.00
2024-04-19T14:54:36.783Z,540.00
2024-04-19T14:55:36.886Z,539.00
2024-04-19T14:56:36.937Z,539.00
2024-04-19T14:57:37.027Z,539.00
2024-04-19T14:58:37.116Z,537.00
2024-04-19T14:59:37.227Z,537.00
2024-04-19T15:00:37.367Z,536.00
2024-04-19T15:01:37.510Z,538.00
2024-04-19T15:02:37.636Z,538.00
2024-04-19T15:03:37.658Z,536.00
2024-04-19T15:04:37.771Z,537.00
2024-04-19T15:05:37.790Z,535.00
2024-04-19T15:06:40.397Z,536.00
2024-04-19T15:07:37.860Z,534.00
2024-04-19T15:08:37.866Z,534.00
2024-04-19T15:09:37.904Z,533.00
2024-04-19T15:10:37.873Z,530.00
2024-04-19T15:11:37.945Z,529.00
2024-04-19T15:12:37.937Z,527.00
2024-04-19T15:13:37.884Z,525.00
2024-04-19T15:14:37.869Z,526.00
2024-04-19T15:15:37.925Z,523.00
2024-04-19T15:16:37.938Z,524.00
2024-04-19T15:17:38.002Z,524.00
2024-04-19T15:18:37.929Z,526.00
2024-04-19T15:19:37.897Z,528.00
2024-04-19T15:20:37.928Z,525.00
2024-04-19T15:21:37.953Z,526.00
2024-04-19T15:22:37.917Z,526.00
2024-04-19T15:23:37.916Z,526.00
2024-04-19T15:24:37.929Z,524.00
2024-04-19T15:25:38.918Z,524.00
2024-04-19T15:26:37.908Z,523.00
2024-04-19T15:27:37.962Z,522.00
2024-04-19T15:28:37.922Z,524.00
2024-04-19T15:29:37.935Z,523.00
2024-04-19T15:30:38.046Z,524.00
2024-04-19T15:31:37.969Z,524.00
2024-04-19T15:32:37.986Z,524.00
2024-04-19T15:33:38.104Z,524.00
2024-04-19T15:34:47.071Z,525.00
2024-04-19T15:35:38.936Z,526.00
2024-04-19T15:36:37.991Z,527.00
2024-04-19T15:37:37.940Z,527.00
2024-04-19T15:38:37.920Z,524.00
2024-04-19T15:39:37.947Z,525.00
2024-04-19T15:40:37.959Z,524.00
2024-04-19T15:41:44.677Z,522.00
2024-04-19T15:42:38.990Z,523.00
2024-04-19T15:43:37.989Z,523.00
2024-04-19T15:44:37.962Z,521.00
2024-04-19T15:45:37.981Z,519.00
2024-04-19T15:46:37.987Z,519.00
2024-04-19T15:47:38.040Z,520.00
2024-04-19T15:48:38.023Z,520.00
2024-04-19T15:49:38.024Z,518.00
2024-04-19T15:50:38.035Z,517.00
2024-04-19T15:51:38.011Z,514.00
2024-04-19T15:52:38.031Z,513.00
2024-04-19T15:53:38.033Z,512.00
2024-04-19T15:54:38.144Z,512.00
2024-04-19T15:55:38.217Z,513.00
2024-04-19T15:56:38.289Z,512.00
2024-04-19T15:57:38.418Z,511.00
2024-04-19T15:58:38.487Z,513.00
2024-04-19T15:59:38.587Z,513.00
2024-04-19T16:00:38.753Z,512.00
2024-04-19T16:01:38.854Z,510.00
2024-04-19T16:02:38.915Z,512.00
2024-04-19T16:03:39.093Z,515.00
2024-04-19T16:04:39.259Z,515.00
2024-04-19T16:05:39.199Z,514.00
2024-04-19T16:06:39.314Z,515.00
2024-04-19T16:07:39.383Z,514.00
2024-04-19T16:08:39.455Z,516.00
2024-04-19T16:09:39.582Z,515.00
2024-04-19T16:10:39.717Z,513.00
2024-04-19T16:11:39.758Z,512.00
2024-04-19T16:12:39.864Z,512.00
2024-04-19T16:13:39.973Z,516.00
2024-04-19T16:14:40.077Z,515.00
2024-04-19T16:15:40.221Z,511.00
2024-04-19T16:16:40.272Z,513.00
2024-04-19T16:17:40.430Z,514.00
2024-04-19T16:18:40.458Z,514.00
2024-04-19T16:19:40.535Z,514.00
2024-04-19T16:20:40.617Z,511.00
2024-04-19T16:21:40.743Z,510.00
2024-04-19T16:22:40.803Z,512.00
2024-04-19T16:23:40.887Z,513.00
2024-04-19T16:24:40.986Z,510.00
2024-04-19T16:25:41.079Z,506.00
2024-04-19T16:26:41.175Z,505.00
2024-04-19T16:27:41.324Z,503.00
2024-04-19T16:28:41.360Z,503.00
2024-04-19T16:29:41.469Z,504.00
2024-04-19T16:30:41.622Z,506.00
2024-04-19T16:31:41.675Z,507.00
2024-04-19T16:32:41.856Z,509.00
2024-04-19T16:33:41.992Z,506.00
2024-04-19T16:34:42.044Z,503.00
2024-04-19T16:35:51.378Z,504.00
2024-04-19T16:36:43.100Z,503.00
2024-04-19T16:37:42.068Z,503.00
2024-04-19T16:38:42.075Z,505.00
2024-04-19T16:39:42.131Z,504.00
2024-04-19T16:40:42.095Z,504.00
2024-04-19T16:41:42.127Z,507.00
2024-04-19T16:42:42.186Z,508.00
2024-04-19T16:43:42.146Z,508.00
2024-04-19T16:44:42.131Z,505.00
2024-04-19T16:45:42.166Z,507.00
2024-04-19T16:46:42.144Z,503.00
2024-04-19T16:47:42.204Z,501.00
2024-04-19T16:48:42.165Z,500.00
2024-04-19T16:49:42.215Z,501.00
2024-04-19T16:50:42.182Z,500.00
2024-04-19T16:51:42.204Z,502.00
2024-04-19T16:52:42.183Z,505.00
2024-04-19T16:53:42.146Z,507.00
2024-04-19T16:54:42.230Z,507.00
2024-04-19T16:55:42.259Z,506.00
2024-04-19T16:56:42.394Z,508.00
2024-04-19T16:57:42.498Z,509.00
2024-04-19T16:58:42.557Z,508.00
2024-04-19T16:59:42.627Z,506.00
2024-04-19T17:00:42.866Z,507.00
2024-04-19T17:01:42.954Z,508.00
2024-04-19T17:02:42.962Z,508.00
2024-04-19T17:03:43.115Z,508.00
2024-04-19T17:04:43.189Z,510.00
2024-04-19T17:05:43.307Z,510.00
2024-04-19T17:06:43.439Z,511.00
2024-04-19T17:07:43.558Z,513.00
2024-04-19T17:08:43.683Z,512.00
2024-04-19T17:09:43.726Z,508.00
2024-04-19T17:10:43.809Z,509.00
2024-04-19T17:11:43.906Z,511.00
2024-04-19T17:12:44.084Z,510.00
2024-04-19T17:13:44.150Z,510.00
2024-04-19T17:14:44.258Z,511.00
2024-04-19T17:15:44.417Z,512.00
2024-04-19T17:16:44.315Z,512.00
2024-04-19T17:17:44.449Z,509.00
2024-04-19T17:18:44.563Z,507.00
2024-04-19T17:19:44.568Z,504.00
2024-04-19T17:20:44.650Z,504.00
2024-04-19T17:21:44.787Z,505.00
2024-04-19T17:22:44.830Z,503.00
2024-04-19T17:23:44.897Z,501.00
2024-04-19T17:24:44.994Z,502.00
2024-04-19T17:25:45.159Z,503.00
2024-04-19T17:26:45.317Z,500.00
2024-04-19T17:27:45.561Z,501.00
2024-04-19T17:28:45.534Z,501.00
2024-04-19T17:29:45.609Z,499.00
2024-04-19T17:30:45.698Z,497.00
2024-04-19T17:31:45.717Z,495.00
2024-04-19T17:32:45.969Z,494.00
2024-04-19T17:33:46.042Z,491.00
2024-04-19T17:34:45.982Z,492.00
2024-04-19T17:35:46.118Z,495.00
2024-04-19T17:36:46.254Z,495.00
2024-04-19T17:37:46.344Z,494.00
2024-04-19T17:38:46.384Z,493.00
2024-04-19T17:39:46.456Z,494.00
2024-04-19T17:40:46.482Z,497.00
2024-04-19T17:41:46.601Z,498.00
2024-04-19T17:42:46.785Z,497.00
2024-04-19T17:43:46.849Z,496.00
2024-04-19T17:44:46.921Z,495.00
2024-04-19T17:45:47.131Z,498.00
2024-04-19T17:46:47.083Z,500.00
2024-04-19T17:47:47.240Z,497.00
2024-04-19T17:48:47.253Z,498.00
2024-04-19T17:49:47.287Z,498.00
2024-04-19T17:50:47.346Z,499.00
2024-04-19T17:51:47.422Z,499.00
2024-04-19T17:52:47.489Z,500.00
2024-04-19T17:53:47.553Z,499.00
2024-04-19T17:54:47.640Z,499.00
2024-04-19T17:55:47.696Z,499.00
2024-04-19T17:56:47.777Z,499.00
2024-04-19T17:57:49.737Z,500.00
2024-04-19T17:58:47.834Z,501.00
2024-04-19T17:59:47.848Z,502.00
2024-04-19T18:00:47.938Z,499.00
2024-04-19T18:01:47.908Z,498.00
2024-04-19T18:02:47.879Z,499.00
2024-04-19T18:03:47.927Z,499.00
2024-04-19T18:04:47.941Z,498.00
2024-04-19T18:05:47.900Z,497.00
2024-04-19T18:06:47.904Z,498.00
2024-04-19T18:07:47.875Z,499.00
2024-04-19T18:08:47.859Z,500.00
2024-04-19T18:09:47.881Z,496.00
2024-04-19T18:10:47.993Z,492.00
2024-04-19T18:11:47.859Z,491.00
2024-04-19T18:12:47.930Z,491.00
2024-04-19T18:13:47.886Z,494.00
2024-04-19T18:14:47.881Z,497.00
2024-04-19T18:15:47.937Z,498.00
2024-04-19T18:16:47.911Z,495.00
2024-04-19T18:17:50.521Z,497.00
2024-04-19T18:18:48.057Z,496.00
2024-04-19T18:19:47.895Z,493.00
2024-04-19T18:20:47.915Z,491.00
2024-04-19T18:21:48.009Z,490.00
2024-04-19T18:22:47.940Z,491.00
2024-04-19T18:23:47.952Z,489.00
2024-04-19T18:24:47.984Z,491.00
2024-04-19T18:25:47.953Z,492.00
2024-04-19T18:26:47.959Z,496.00
2024-04-19T18:27:47.983Z,496.00
2024-04-19T18:28:47.959Z,494.00
2024-04-19T18:29:47.950Z,493.00
2024-04-19T18:30:47.990Z,491.00
2024-04-19T18:31:47.973Z,489.00
2024-04-19T18:32:47.969Z,488.00
2024-04-19T18:33:48.104Z,490.00
2024-04-19T18:34:47.936Z,489.00
2024-04-19T18:35:47.995Z,491.00
2024-04-19T18:36:47.981Z,494.00
2024-04-19T18:37:47.947Z,495.00
2024-04-19T18:38:47.966Z,495.00
2024-04-19T18:39:47.994Z,492.00
2024-04-19T18:40:47.964Z,493.00
2024-04-19T18:41:47.973Z,492.00
2024-04-19T18:42:48.010Z,492.00
2024-04-19T18:43:48.011Z,493.00
2024-04-19T18:44:48.038Z,493.00
2024-04-19T18:45:48.099Z,495.00
2024-04-19T18:46:47.994Z,495.00
2024-04-19T18:47:48.074Z,496.00
2024-04-19T18:48:48.203Z,494.00
2024-04-19T18:49:48.032Z,495.00
2024-04-19T18:50:48.028Z,496.00
2024-04-19T18:51:48.064Z,497.00
2024-04-19T18:52:48.024Z,496.00
2024-04-19T18:53:48.038Z,499.00
2024-04-19T18:54:48.118Z,499.00
2024-04-19T18:55:48.016Z,500.00
2024-04-19T18:56:48.076Z,499.00
2024-04-19T18:57:48.052Z,499.00
2024-04-19T18:58:48.099Z,498.00
2024-04-19T18:59:48.054Z,499.00
2024-04-19T19:00:49.082Z,499.00
2024-04-19T19:01:48.130Z,498.00
2024-04-19T19:02:48.242Z,498.00
2024-04-19T19:03:48.508Z,496.00
2024-04-19T19:04:48.342Z,496.00
2024-04-19T19:05:48.441Z,498.00
2024-04-19T19:06:48.540Z,499.00
2024-04-19T19:07:48.576Z,497.00
2024-04-19T19:08:48.683Z,499.00
2024-04-19T19:09:48.816Z,498.00
2024-04-19T19:10:48.958Z,497.00
2024-04-19T19:11:48.939Z,498.00
2024-04-19T19:12:49.104Z,497.00
2024-04-19T19:13:49.101Z,494.00
2024-04-19T19:14:49.215Z,492.00
2024-04-19T19:15:49.358Z,492.00
2024-04-19T19:16:49.384Z,493.00
2024-04-19T19:17:49.508Z,490.00
2024-04-19T19:18:49.649Z,490.00
2024-04-19T19:19:49.624Z,489.00
2024-04-19T19:20:49.755Z,491.00
2024-04-19T19:21:49.850Z,492.00
2024-04-19T19:22:49.890Z,493.00
2024-04-19T19:23:50.013Z,493.00
2024-04-19T19:24:50.183Z,494.00
2024-04-19T19:25:50.178Z,494.00
2024-04-19T19:26:50.269Z,496.00
2024-04-19T19:27:50.412Z,497.00
2024-04-19T19:28:50.461Z,499.00
2024-04-19T19:29:50.527Z,498.00
2024-04-19T19:30:50.672Z,496.00
2024-04-19T19:31:50.788Z,497.00
2024-04-19T19:32:50.915Z,494.00
2024-04-19T19:33:50.949Z,494.00
2024-04-19T19:34:51.046Z,493.00
2024-04-19T19:35:51.114Z,489.00
2024-04-19T19:36:51.379Z,491.00
2024-04-19T19:37:51.338Z,495.00
2024-04-19T19:38:51.408Z,496.00
2024-04-19T19:39:51.546Z,497.00
2024-04-19T19:40:51.636Z,499.00
2024-04-19T19:41:51.717Z,500.00
2024-04-19T19:42:51.843Z,499.00
2024-04-19T19:43:51.945Z,499.00
2024-04-19T19:44:52.002Z,500.00
2024-04-19T19:45:52.092Z,503.00
2024-04-19T19:46:52.216Z,501.00
2024-04-19T19:47:52.461Z,500.00
2024-04-19T19:48:52.414Z,499.00
2024-04-19T19:49:52.515Z,503.00
2024-04-19T19:50:52.607Z,501.00
2024-04-19T19:51:52.732Z,499.00
2024-04-19T19:52:52.808Z,497.00
2024-04-19T19:53:52.908Z,498.00
2024-04-19T19:54:53.012Z,502.00
2024-04-19T19:55:53.077Z,499.00
2024-04-19T19:56:53.187Z,500.00
2024-04-19T19:57:53.304Z,501.00
2024-04-19T19:58:53.425Z,501.00
2024-04-19T19:59:53.525Z,502.00
2024-04-19T20:00:53.705Z,503.00
2024-04-19T20:01:53.825Z,501.00
2024-04-19T20:02:53.814Z,499.00
2024-04-19T20:03:54.083Z,498.00
2024-04-19T20:04:54.005Z,498.00
2024-04-19T20:05:54.111Z,497.00
2024-04-19T20:06:54.266Z,496.00
2024-04-19T20:07:54.355Z,496.00
2024-04-19T20:08:54.442Z,497.00
2024-04-19T20:09:54.646Z,499.00
2024-04-19T20:10:54.729Z,499.00
2024-04-19T20:11:54.800Z,499.00
2024-04-19T20:12:54.944Z,501.00
2024-04-19T20:13:55.002Z,502.00
2024-04-19T20:14:55.129Z,502.00
2024-04-19T20:15:55.271Z,502.00
2024-04-19T20:16:55.328Z,502.00
2024-04-19T20:17:56.134Z,504.00
2024-04-19T20:18:55.762Z,505.00
2024-04-19T20:19:55.659Z,506.00
2024-04-19T20:20:55.771Z,505.00
2024-04-19T20:21:55.915Z,503.00
2024-04-19T20:22:56.002Z,502.00
2024-04-19T20:23:56.109Z,502.00
2024-04-19T20:24:56.286Z,503.00
2024-04-19T20:25:56.320Z,504.00
2024-04-19T20:26:56.426Z,502.00
2024-04-19T20:27:56.568Z,499.00
2024-04-19T20:28:56.625Z,499.00
2024-04-19T20:29:56.740Z,497.00
2024-04-19T20:30:56.878Z,496.00
2024-04-19T20:31:56.907Z,494.00
2024-04-19T20:32:57.148Z,491.00
2024-04-19T20:33:57.195Z,491.00
2024-04-19T20:34:57.230Z,492.00
2024-04-19T20:35:57.355Z,492.00
2024-04-19T20:36:57.441Z,492.00
2024-04-19T20:37:57.542Z,491.00
2024-04-19T20:38:57.653Z,492.00
2024-04-19T20:39:57.812Z,493.00
2024-04-19T20:40:57.850Z,492.00
2024-04-19T20:41:57.962Z,492.00
2024-04-19T20:43:06.437Z,494.00
2024-04-19T20:43:59.092Z,493.00
2024-04-19T20:44:58.086Z,492.00
2024-04-19T20:45:58.181Z,490.00
2024-04-19T20:46:58.067Z,491.00
2024-04-19T20:47:58.177Z,493.00
2024-04-19T20:48:58.229Z,496.00